createdAt,value
2022-11-24T00:29:24.491Z,995.6
2022-11-24T00:30:04.948Z,995.62
2022-11-24T00:30:45.436Z,995.65
2022-11-24T00:31:25.902Z,995.64
2022-11-24T00:32:06.299Z,995.65
2022-11-24T00:32:46.767Z,995.63
2022-11-24T00:33:27.260Z,995.59
2022-11-24T00:34:07.705Z,995.66
2022-11-24T00:34:48.215Z,995.64
2022-11-24T00:35:28.697Z,995.69
2022-11-24T00:36:09.129Z,995.72
2022-11-24T00:36:49.621Z,995.7
2022-11-24T00:37:30.086Z,995.65
2022-11-24T00:38:10.580Z,995.69
2022-11-24T00:38:51.077Z,995.71
2022-11-24T00:39:31.519Z,995.68
2022-11-24T00:40:12.004Z,995.7
2022-11-24T00:40:52.498Z,995.65
2022-11-24T00:41:33.036Z,995.66
2022-11-24T00:42:13.513Z,995.65
2022-11-24T00:42:53.974Z,995.7
2022-11-24T00:43:34.479Z,995.67
2022-11-24T00:44:14.893Z,995.71
2022-11-24T00:44:55.428Z,995.71
2022-11-24T00:46:16.355Z,995.72
2022-11-24T00:46:56.938Z,995.72
2022-11-24T00:47:37.251Z,995.74
2022-11-24T00:48:17.756Z,995.71
2022-11-24T00:48:58.220Z,995.72
2022-11-24T00:49:38.725Z,995.69
2022-11-24T00:50:19.147Z,995.72
2022-11-24T00:50:59.603Z,995.71
2022-11-24T00:51:40.080Z,995.74
2022-11-24T00:52:20.535Z,995.71
2022-11-24T00:53:01.065Z,995.71
2022-11-24T00:53:41.521Z,995.73
2022-11-24T00:54:22.058Z,995.74
2022-11-24T00:55:02.566Z,995.76
2022-11-24T00:55:43.047Z,995.75
2022-11-24T00:56:23.550Z,995.77
2022-11-24T00:57:04.036Z,995.75
2022-11-24T00:57:44.593Z,995.82
2022-11-24T00:58:25.036Z,995.77
2022-11-24T00:59:05.515Z,995.81
2022-11-24T00:59:45.978Z,995.81
2022-11-24T01:00:26.453Z,995.82
2022-11-24T01:01:06.943Z,995.8
2022-11-24T01:01:47.428Z,995.83
2022-11-24T01:02:27.880Z,995.83
2022-11-24T01:03:08.332Z,995.85
2022-11-24T01:03:48.840Z,995.88
2022-11-24T01:04:29.323Z,995.9
2022-11-24T01:05:09.789Z,995.88
2022-11-24T01:05:50.226Z,995.94
2022-11-24T01:06:30.695Z,995.89
2022-11-24T01:07:11.199Z,995.94
2022-11-24T01:07:51.759Z,995.96
2022-11-24T01:08:32.100Z,995.97
2022-11-24T01:09:12.579Z,995.99
2022-11-24T01:09:53.052Z,995.97
2022-11-24T01:10:33.573Z,995.99
2022-11-24T01:11:13.994Z,996.01
2022-11-24T01:11:54.473Z,996.01
2022-11-24T01:12:34.902Z,996.05
2022-11-24T01:13:15.381Z,996.02
2022-11-24T01:13:55.851Z,996.05
2022-11-24T01:14:36.674Z,996.12
2022-11-24T01:15:16.893Z,996.11
2022-11-24T01:15:57.455Z,996.1
2022-11-24T01:16:37.897Z,996.09
2022-11-24T01:17:18.327Z,996.12
2022-11-24T01:17:58.816Z,996.16
2022-11-24T01:18:39.354Z,996.15
2022-11-24T01:19:19.820Z,996.16
2022-11-24T01:20:00.320Z,996.2
2022-11-24T01:21:21.282Z,996.15
2022-11-24T01:22:01.718Z,996.16
2022-11-24T01:22:42.248Z,996.12
2022-11-24T01:23:22.661Z,996.1
2022-11-24T01:24:03.156Z,996.13
2022-11-24T01:24:43.619Z,996.09
2022-11-24T01:25:24.092Z,996.09
2022-11-24T01:26:04.635Z,996.12
2022-11-24T01:26:45.093Z,996.1
2022-11-24T01:27:25.573Z,996.07
2022-11-24T01:28:06.039Z,996.07
2022-11-24T01:28:47.644Z,996.1
2022-11-24T01:29:27.076Z,996.1
2022-11-24T01:30:07.604Z,996.12
2022-11-24T01:30:48.023Z,996.11
2022-11-24T01:31:28.538Z,996.05
2022-11-24T01:32:08.994Z,996.09
2022-11-24T01:32:49.433Z,996.05
2022-11-24T01:33:29.905Z,996.07
2022-11-24T01:34:10.417Z,996.07
2022-11-24T01:34:50.867Z,996.09
2022-11-24T01:35:31.358Z,996.1
2022-11-24T01:36:11.857Z,996.1
2022-11-24T01:36:52.317Z,996.08
2022-11-24T01:37:32.769Z,996.11
2022-11-24T01:38:13.222Z,996.07
2022-11-24T01:38:53.671Z,996.06
2022-11-24T01:39:34.166Z,996.09
2022-11-24T01:40:14.623Z,996.09
2022-11-24T01:40:55.110Z,996.08
2022-11-24T01:41:35.619Z,996.08
2022-11-24T01:42:16.086Z,996.04
2022-11-24T01:42:56.523Z,996.09
2022-11-24T01:43:36.994Z,996.13
2022-11-24T01:44:17.479Z,996.09
2022-11-24T01:44:58.056Z,996.03
2022-11-24T01:45:38.575Z,996.14
2022-11-24T01:46:19.114Z,996.13
2022-11-24T01:46:59.543Z,996.15
2022-11-24T01:47:40.052Z,996.11
2022-11-24T01:48:24.449Z,996.16
2022-11-24T01:49:01.011Z,996.09
2022-11-24T01:49:41.473Z,996.12
2022-11-24T01:50:21.944Z,996.18
2022-11-24T01:51:02.423Z,996.21
2022-11-24T01:51:42.894Z,996.19
2022-11-24T01:52:23.411Z,996.15
2022-11-24T01:53:03.895Z,996.19
2022-11-24T01:53:44.388Z,996.15
2022-11-24T01:54:24.821Z,996.18
2022-11-24T01:55:05.364Z,996.18
2022-11-24T01:55:45.843Z,996.15
2022-11-24T01:56:26.250Z,996.14
2022-11-24T01:57:06.716Z,996.12
2022-11-24T01:57:47.179Z,996.12
2022-11-24T01:58:27.695Z,996.12
2022-11-24T01:59:08.143Z,996.08
2022-11-24T01:59:48.633Z,996.1
2022-11-24T02:00:29.052Z,996.1
2022-11-24T02:01:09.610Z,996.11
2022-11-24T02:01:50.041Z,996.18
2022-11-24T02:02:30.581Z,996.11
2022-11-24T02:03:10.953Z,996.1
2022-11-24T02:03:51.441Z,996.13
2022-11-24T02:04:32.191Z,996.07
2022-11-24T02:05:12.396Z,996.1
2022-11-24T02:05:52.858Z,996.17
2022-11-24T02:06:33.363Z,996.23
2022-11-24T02:07:13.887Z,996.24
2022-11-24T02:07:54.398Z,996.23
2022-11-24T02:08:34.823Z,996.27
2022-11-24T02:09:15.305Z,996.26
2022-11-24T02:09:55.779Z,996.26
2022-11-24T02:10:36.212Z,996.27
2022-11-24T02:11:57.101Z,996.29
2022-11-24T02:12:37.670Z,996.24
2022-11-24T02:13:18.123Z,996.27
2022-11-24T02:13:58.625Z,996.27
2022-11-24T02:14:39.112Z,996.28
2022-11-24T02:15:19.529Z,996.26
2022-11-24T02:16:00.063Z,996.31
2022-11-24T02:16:40.519Z,996.31
2022-11-24T02:17:20.998Z,996.31
2022-11-24T02:18:01.490Z,996.32
2022-11-24T02:18:42.002Z,996.33
2022-11-24T02:19:22.505Z,996.33
2022-11-24T02:20:02.977Z,996.36
2022-11-24T02:20:43.450Z,996.38
2022-11-24T02:22:04.408Z,996.36
2022-11-24T02:22:44.870Z,996.3
2022-11-24T02:23:25.336Z,996.33
2022-11-24T02:24:05.795Z,996.36
2022-11-24T02:24:46.310Z,996.33
2022-11-24T02:25:26.784Z,996.3
2022-11-24T02:26:07.238Z,996.33
2022-11-24T02:26:47.773Z,996.37
2022-11-24T02:27:28.234Z,996.39
2022-11-24T02:28:08.739Z,996.4
2022-11-24T02:28:49.228Z,996.37
2022-11-24T02:29:29.665Z,996.33
2022-11-24T02:30:10.132Z,996.39
2022-11-24T02:30:50.680Z,996.32
2022-11-24T02:31:31.153Z,996.32
2022-11-24T02:32:11.581Z,996.31
2022-11-24T02:32:52.088Z,996.32
2022-11-24T02:33:32.565Z,996.26
2022-11-24T02:34:13.063Z,996.3
2022-11-24T02:34:53.483Z,996.29
2022-11-24T02:35:33.973Z,996.31
2022-11-24T02:36:14.443Z,996.31
2022-11-24T02:36:54.892Z,996.34
2022-11-24T02:37:35.399Z,996.34
2022-11-24T02:38:15.777Z,996.32
2022-11-24T02:38:56.325Z,996.34
2022-11-24T02:39:36.728Z,996.39
2022-11-24T02:40:17.206Z,996.34
2022-11-24T02:40:57.696Z,996.35
2022-11-24T02:41:38.211Z,996.34
2022-11-24T02:42:18.731Z,996.36
2022-11-24T02:42:59.156Z,996.35
2022-11-24T02:43:39.660Z,996.33
2022-11-24T02:44:20.115Z,996.34
2022-11-24T02:45:00.575Z,996.41
2022-11-24T02:45:41.063Z,996.35
2022-11-24T02:46:21.587Z,996.4
2022-11-24T02:47:02.014Z,996.37
2022-11-24T02:47:42.493Z,996.38
2022-11-24T02:48:22.952Z,996.36
2022-11-24T02:49:03.485Z,996.38
2022-11-24T02:49:43.926Z,996.35
2022-11-24T02:50:24.414Z,996.36
2022-11-24T02:51:04.923Z,996.39
2022-11-24T02:52:25.835Z,996.34
2022-11-24T02:53:06.297Z,996.28
2022-11-24T02:53:46.794Z,996.33
2022-11-24T02:54:27.230Z,996.31
2022-11-24T02:55:07.713Z,996.31
2022-11-24T02:55:48.190Z,996.31
2022-11-24T02:56:28.650Z,996.33
2022-11-24T02:57:09.155Z,996.34
2022-11-24T02:57:49.627Z,996.36
2022-11-24T02:58:30.100Z,996.36
2022-11-24T02:59:10.580Z,996.41
2022-11-24T02:59:51.061Z,996.39
2022-11-24T03:00:31.558Z,996.44
2022-11-24T03:03:30.538Z,996.4
2022-11-24T03:04:11.020Z,996.44
2022-11-24T03:04:51.476Z,996.43
2022-11-24T03:05:31.982Z,996.46
2022-11-24T03:06:12.409Z,996.44
2022-11-24T03:06:52.931Z,996.5
2022-11-24T03:07:33.460Z,996.44
2022-11-24T03:08:13.918Z,996.48
2022-11-24T03:08:54.385Z,996.44
2022-11-24T03:09:34.917Z,996.52
2022-11-24T03:10:15.367Z,996.54
2022-11-24T03:10:55.837Z,996.55
2022-11-24T03:11:36.322Z,996.55
2022-11-24T03:12:16.760Z,996.52
2022-11-24T03:12:57.272Z,996.54
2022-11-24T03:13:37.706Z,996.55
2022-11-24T03:14:18.167Z,996.57
2022-11-24T03:14:58.634Z,996.54
2022-11-24T03:15:39.101Z,996.55
2022-11-24T03:16:19.565Z,996.56
2022-11-24T03:16:59.966Z,996.58
2022-11-24T03:17:40.419Z,996.57
2022-11-24T03:18:20.899Z,996.6
2022-11-24T03:19:01.415Z,996.6
2022-11-24T03:19:41.891Z,996.61
2022-11-24T03:20:22.339Z,996.58
2022-11-24T03:21:02.828Z,996.59
2022-11-24T03:21:43.327Z,996.58
2022-11-24T03:22:23.773Z,996.61
2022-11-24T03:26:08.968Z,996.64
2022-11-24T03:26:49.435Z,996.58
2022-11-24T03:27:29.896Z,996.63
2022-11-24T03:28:10.346Z,996.65
2022-11-24T03:28:50.902Z,996.68
2022-11-24T03:29:31.362Z,996.63
2022-11-24T03:30:11.784Z,996.65
2022-11-24T03:30:52.340Z,996.63
2022-11-24T03:31:32.808Z,996.69
2022-11-24T03:32:13.259Z,996.67
2022-11-24T03:32:53.771Z,996.69
2022-11-24T03:33:34.205Z,996.68
2022-11-24T03:34:14.726Z,996.7
2022-11-24T03:34:55.143Z,996.63
2022-11-24T03:35:35.618Z,996.66
2022-11-24T03:36:16.169Z,996.66
2022-11-24T03:36:56.610Z,996.65
2022-11-24T03:37:37.071Z,996.66
2022-11-24T03:38:17.527Z,996.67
2022-11-24T03:38:58.049Z,996.63
2022-11-24T03:39:38.520Z,996.65
2022-11-24T03:40:18.987Z,996.69
2022-11-24T03:40:59.475Z,996.68
2022-11-24T03:41:39.883Z,996.7
2022-11-24T03:42:20.414Z,996.68
2022-11-24T03:43:00.832Z,996.72
2022-11-24T03:43:43.926Z,996.73
2022-11-24T03:45:23.026Z,996.67
2022-11-24T03:45:46.638Z,996.68
2022-11-24T03:46:23.303Z,996.71
2022-11-24T03:47:03.749Z,996.68
2022-11-24T03:47:44.222Z,996.74
2022-11-24T03:48:24.737Z,996.73
2022-11-24T03:49:05.201Z,996.77
2022-11-24T03:49:45.738Z,996.76
2022-11-24T03:50:26.188Z,996.77
2022-11-24T03:51:06.634Z,996.77
2022-11-24T03:51:47.164Z,996.85
2022-11-24T03:52:27.617Z,996.83
2022-11-24T03:53:08.100Z,996.83
2022-11-24T03:53:48.544Z,996.88
2022-11-24T03:54:28.995Z,996.84
2022-11-24T03:55:09.449Z,996.85
2022-11-24T03:55:49.925Z,996.89
2022-11-24T03:56:30.392Z,996.91
2022-11-24T03:57:10.921Z,996.9
2022-11-24T03:57:51.376Z,996.95
2022-11-24T03:58:31.858Z,996.91
2022-11-24T03:59:12.378Z,996.93
2022-11-24T03:59:52.800Z,996.9
2022-11-24T04:00:33.332Z,996.98
2022-11-24T04:01:13.769Z,996.96
2022-11-24T04:01:54.269Z,996.91
2022-11-24T04:02:34.723Z,996.92
2022-11-24T04:03:15.232Z,996.95
2022-11-24T04:03:55.619Z,996.92
2022-11-24T04:04:36.209Z,996.94
2022-11-24T04:05:16.565Z,996.96
2022-11-24T04:05:57.137Z,996.92
2022-11-24T04:06:37.476Z,996.96
2022-11-24T04:07:18.019Z,996.93
2022-11-24T04:07:58.442Z,996.96
2022-11-24T04:08:38.927Z,997
2022-11-24T04:09:59.895Z,996.98
2022-11-24T04:10:40.385Z,997.01
2022-11-24T04:11:20.882Z,997.01
2022-11-24T04:12:01.377Z,997.01
2022-11-24T04:12:41.850Z,997.06
2022-11-24T04:13:22.333Z,997.07
2022-11-24T04:14:02.825Z,997.04
2022-11-24T04:15:23.807Z,997.04
2022-11-24T04:16:04.315Z,996.99
2022-11-24T04:16:44.707Z,997.07
2022-11-24T04:17:25.170Z,997
2022-11-24T04:18:05.639Z,997.03
2022-11-24T04:18:46.139Z,997.04
2022-11-24T04:19:26.591Z,997.03
2022-11-24T04:20:07.149Z,997.04
2022-11-24T04:20:47.644Z,997.02
2022-11-24T04:21:28.164Z,997.06
2022-11-24T04:22:08.560Z,997.07
2022-11-24T04:22:49.081Z,997.06
2022-11-24T04:23:29.581Z,997.04
2022-11-24T04:24:10.056Z,997.04
2022-11-24T04:24:50.534Z,997.03
2022-11-24T04:25:30.995Z,997.04
2022-11-24T04:26:11.471Z,997.04
2022-11-24T04:26:51.925Z,997.04
2022-11-24T04:27:32.428Z,997.05
2022-11-24T04:28:12.925Z,997.05
2022-11-24T04:28:53.476Z,997.06
2022-11-24T04:29:33.842Z,997.09
2022-11-24T04:30:14.339Z,997.07
2022-11-24T04:30:54.806Z,997.07
2022-11-24T04:31:35.385Z,997.06
2022-11-24T04:32:15.809Z,997.03
2022-11-24T04:32:56.324Z,997.09
2022-11-24T04:33:36.730Z,997.05
2022-11-24T04:34:17.256Z,997.05
2022-11-24T04:34:57.741Z,997.08
2022-11-24T04:35:38.203Z,997.08
2022-11-24T04:36:18.696Z,997.1
2022-11-24T04:36:59.172Z,997.14
2022-11-24T04:37:39.621Z,997.11
2022-11-24T04:39:20.489Z,997.13
2022-11-24T04:39:20.512Z,997.11
2022-11-24T04:40:21.505Z,997.14
2022-11-24T04:41:01.935Z,997.12
2022-11-24T04:41:42.399Z,997.14
2022-11-24T04:42:22.877Z,997.14
2022-11-24T04:43:03.375Z,997.12
2022-11-24T04:43:43.834Z,997.22
2022-11-24T04:44:24.306Z,997.18
2022-11-24T04:45:04.830Z,997.18
2022-11-24T04:45:45.215Z,997.16
2022-11-24T04:46:25.730Z,997.14
2022-11-24T04:47:06.203Z,997.17
2022-11-24T04:47:46.649Z,997.19
2022-11-24T04:48:27.103Z,997.18
2022-11-24T04:49:07.575Z,997.21
2022-11-24T04:49:48.034Z,997.22
2022-11-24T04:50:28.509Z,997.24
2022-11-24T04:51:08.986Z,997.22
2022-11-24T04:51:56.282Z,997.27
2022-11-24T04:52:36.808Z,997.22
2022-11-24T04:53:18.070Z,997.25
2022-11-24T04:53:57.721Z,997.26
2022-11-24T04:55:18.657Z,997.27
2022-11-24T04:55:59.091Z,997.33
2022-11-24T04:56:39.542Z,997.32
2022-11-24T04:57:20.054Z,997.32
2022-11-24T04:58:00.483Z,997.33
2022-11-24T04:58:40.932Z,997.35
2022-11-24T04:59:21.432Z,997.31
2022-11-24T05:00:01.881Z,997.32
2022-11-24T05:00:42.355Z,997.37
2022-11-24T05:01:22.904Z,997.35
2022-11-24T05:02:43.804Z,997.38
2022-11-24T05:03:24.336Z,997.4
2022-11-24T05:04:04.801Z,997.4
2022-11-24T05:04:45.278Z,997.42
2022-11-24T05:05:25.700Z,997.42
2022-11-24T05:06:06.181Z,997.44
2022-11-24T05:06:46.677Z,997.44
2022-11-24T05:07:27.149Z,997.45
2022-11-24T05:08:07.591Z,997.47
2022-11-24T05:08:48.069Z,997.5
2022-11-24T05:09:41.925Z,997.45
2022-11-24T05:10:08.999Z,997.47
2022-11-24T05:10:49.440Z,997.51
2022-11-24T05:11:29.898Z,997.51
2022-11-24T05:12:51.438Z,997.58
2022-11-24T05:13:31.321Z,997.53
2022-11-24T05:14:11.735Z,997.53
2022-11-24T05:14:52.211Z,997.61
2022-11-24T05:15:32.733Z,997.58
2022-11-24T05:16:13.254Z,997.61
2022-11-24T05:16:53.836Z,997.61
2022-11-24T05:17:34.276Z,997.63
2022-11-24T05:18:14.703Z,997.68
2022-11-24T05:18:55.170Z,997.68
2022-11-24T05:19:35.632Z,997.69
2022-11-24T05:20:16.148Z,997.7
2022-11-24T05:20:56.684Z,997.67
2022-11-24T05:21:37.130Z,997.72
2022-11-24T05:22:17.626Z,997.72
2022-11-24T05:22:58.148Z,997.77
2022-11-24T05:23:38.647Z,997.73
2022-11-24T05:24:19.154Z,997.78
2022-11-24T05:24:59.587Z,997.82
2022-11-24T05:25:43.700Z,997.83
2022-11-24T05:26:20.587Z,997.82
2022-11-24T05:27:01.079Z,997.81
2022-11-24T05:27:41.627Z,997.79
2022-11-24T05:28:22.117Z,997.8
2022-11-24T05:29:02.614Z,997.82
2022-11-24T05:29:43.132Z,997.86
2022-11-24T05:30:23.574Z,997.85
2022-11-24T05:31:04.106Z,997.91
2022-11-24T05:31:44.730Z,997.93
2022-11-24T05:32:25.099Z,997.95
2022-11-24T05:33:05.578Z,998
2022-11-24T05:33:46.106Z,998.08
2022-11-24T05:34:26.555Z,998.11
2022-11-24T05:35:07.079Z,998.1
2022-11-24T05:35:47.504Z,998.14
2022-11-24T05:36:27.971Z,998.02
2022-11-24T05:37:08.454Z,998.08
2022-11-24T05:37:49.004Z,997.87
2022-11-24T05:38:29.551Z,998.05
2022-11-24T05:39:10.086Z,998.03
2022-11-24T05:40:31.008Z,997.91
2022-11-24T05:41:11.691Z,997.96
2022-11-24T05:41:52.799Z,998
2022-11-24T05:43:13.840Z,998.03
2022-11-24T05:43:54.593Z,997.99
2022-11-24T05:44:35.094Z,997.99
2022-11-24T05:45:15.491Z,998.06
2022-11-24T05:45:56.133Z,998.09
2022-11-24T05:46:36.724Z,998.04
2022-11-24T05:47:17.163Z,998.06
2022-11-24T05:47:57.933Z,998.07
2022-11-24T05:48:38.431Z,998.04
2022-11-24T05:49:19.050Z,998.13
2022-11-24T05:49:59.415Z,998.13
2022-11-24T05:50:39.974Z,998.18
2022-11-24T05:51:20.465Z,998.17
2022-11-24T05:52:00.945Z,998.17
2022-11-24T05:53:21.968Z,998.24
2022-11-24T05:54:02.523Z,998.2
2022-11-24T05:54:43.059Z,998.27
2022-11-24T06:32:14.300Z,998.39
2022-11-24T06:34:11.780Z,998.42
2022-11-24T06:34:52.808Z,998.25
2022-11-24T06:35:33.338Z,998.38
2022-11-24T06:36:13.945Z,998.41
2022-11-24T06:36:54.407Z,998.49
2022-11-24T06:37:34.932Z,998.47
2022-11-24T06:38:17.937Z,998.41
2022-11-24T06:38:55.949Z,998.43
2022-11-24T06:39:36.458Z,998.43
2022-11-24T06:40:16.954Z,998.51
2022-11-24T06:40:57.457Z,998.46
2022-11-24T06:41:38.433Z,998.44
2022-11-24T06:42:18.863Z,998.42
2022-11-24T06:42:59.464Z,998.45
2022-11-24T06:43:39.963Z,998.43
2022-11-24T06:44:20.377Z,998.52
2022-11-24T06:45:00.891Z,998.47
2022-11-24T06:45:41.402Z,998.51
2022-11-24T06:46:21.960Z,998.56
2022-11-24T06:47:02.571Z,998.54
2022-11-24T06:47:43.014Z,998.54
2022-11-24T06:48:24.196Z,998.57
2022-11-24T06:49:04.733Z,998.57
2022-11-24T06:49:45.313Z,998.61
2022-11-24T06:50:29.281Z,998.6
2022-11-24T06:51:06.301Z,998.56
2022-11-24T06:51:46.821Z,998.6
2022-11-24T06:52:27.342Z,998.61
2022-11-24T06:53:07.897Z,998.63
2022-11-24T06:53:48.425Z,998.63
2022-11-24T06:54:28.957Z,998.64
2022-11-24T06:55:09.531Z,998.68
2022-11-24T06:55:50.042Z,998.67
2022-11-24T06:56:30.580Z,998.7
2022-11-24T06:57:11.067Z,998.68
2022-11-24T06:57:51.568Z,998.71
2022-11-24T06:58:32.060Z,998.73
2022-11-24T06:59:12.606Z,998.72
2022-11-24T06:59:53.126Z,998.72
2022-11-24T07:00:33.662Z,998.72
2022-11-24T07:01:14.241Z,998.72
2022-11-24T07:01:54.765Z,998.7
2022-11-24T07:02:35.323Z,998.78
2022-11-24T07:03:15.817Z,998.73
2022-11-24T07:04:37.090Z,998.73
2022-11-24T07:05:17.381Z,998.73
2022-11-24T07:05:57.913Z,998.79
2022-11-24T07:06:38.420Z,998.77
2022-11-24T07:07:19.039Z,998.84
2022-11-24T07:07:59.576Z,998.87
2022-11-24T07:08:40.137Z,998.85
2022-11-24T07:09:20.756Z,998.86
2022-11-24T07:10:02.217Z,998.89
2022-11-24T07:10:42.720Z,998.94
2022-11-24T07:11:23.204Z,998.97
2022-11-24T07:12:03.785Z,998.98
2022-11-24T07:12:44.232Z,998.98
2022-11-24T07:13:24.825Z,998.99
2022-11-24T07:14:05.318Z,999.04
2022-11-24T07:14:45.885Z,999.03
2022-11-24T07:15:27.099Z,999.02
2022-11-24T07:16:07.642Z,999.06
2022-11-24T07:16:48.228Z,999.06
2022-11-24T07:17:28.664Z,999.11
2022-11-24T07:18:10.124Z,999.12
2022-11-24T07:18:50.685Z,999.09
2022-11-24T07:19:32.062Z,999.14
2022-11-24T07:20:13.320Z,999.11
2022-11-24T07:20:53.908Z,999.22
2022-11-24T07:21:34.469Z,999.18
2022-11-24T07:22:15.016Z,999.23
2022-11-24T07:22:55.602Z,999.24
2022-11-24T07:23:36.189Z,999.23
2022-11-24T07:24:16.740Z,999.26
2022-11-24T07:24:57.363Z,999.35
2022-11-24T07:25:37.836Z,999.37
2022-11-24T07:26:18.533Z,999.35
2022-11-24T07:26:59.972Z,999.41
2022-11-24T07:27:40.525Z,999.4
2022-11-24T07:28:20.965Z,999.38
2022-11-24T07:29:42.244Z,999.4
2022-11-24T07:30:22.768Z,999.46
2022-11-24T07:31:03.313Z,999.46
2022-11-24T07:31:44.000Z,999.44
2022-11-24T07:32:24.408Z,999.49
2022-11-24T07:33:04.932Z,999.48
2022-11-24T07:33:46.271Z,999.46
2022-11-24T07:34:27.415Z,999.43
2022-11-24T07:35:07.997Z,999.52
2022-11-24T07:35:48.592Z,999.53
2022-11-24T07:37:09.803Z,999.52
2022-11-24T07:37:50.629Z,999.53
2022-11-24T07:38:31.230Z,999.52
2022-11-24T07:39:12.591Z,999.56
2022-11-24T07:39:53.733Z,999.58
2022-11-24T07:40:34.980Z,999.63
2022-11-24T07:41:15.822Z,999.62
2022-11-24T07:41:56.414Z,999.6
2022-11-24T07:42:36.953Z,999.65
2022-11-24T07:43:20.251Z,999.67
2022-11-24T07:44:38.644Z,999.67
2022-11-24T07:45:25.735Z,999.74
2022-11-24T07:46:06.343Z,999.72
2022-11-24T07:46:46.804Z,999.73
2022-11-24T07:47:27.287Z,999.78
2022-11-24T07:52:35.642Z,999.83
2022-11-24T07:53:16.466Z,999.85
2022-11-24T07:56:45.863Z,999.92
2022-11-24T07:57:26.582Z,999.97
2022-11-24T07:58:07.156Z,999.97
2022-11-24T08:01:06.945Z,1000.03
2022-11-24T08:01:47.542Z,1000.06
2022-11-24T08:02:28.809Z,1000.03
2022-11-24T08:03:10.914Z,1000.07
2022-11-24T08:04:33.565Z,1000.07
2022-11-24T08:10:01.471Z,1000.14
2022-11-24T08:10:42.365Z,1000.21
2022-11-24T08:11:24.180Z,1000.18
2022-11-24T08:12:05.198Z,1000.21
2022-11-24T08:12:46.526Z,1000.2
2022-11-24T08:13:28.131Z,1000.17
2022-11-24T08:14:08.790Z,1000.21
2022-11-24T08:14:49.350Z,1000.25
2022-11-24T08:15:29.832Z,1000.24
2022-11-24T08:16:10.463Z,1000.25
2022-11-24T08:16:51.159Z,1000.26
2022-11-24T08:17:31.714Z,1000.33
2022-11-24T08:18:13.609Z,1000.24
2022-11-24T08:18:55.386Z,1000.28
2022-11-24T08:19:36.162Z,1000.31
2022-11-24T08:20:17.610Z,1000.27
2022-11-24T08:20:58.408Z,1000.29
2022-11-24T08:21:39.629Z,1000.33
2022-11-24T08:22:20.377Z,1000.32
2022-11-24T08:23:00.900Z,1000.36
2022-11-24T08:25:30.865Z,1000.34
2022-11-24T08:27:33.072Z,1000.33
2022-11-24T08:28:14.219Z,1000.34
2022-11-24T08:28:55.382Z,1000.38
2022-11-24T08:29:37.127Z,1000.42
2022-11-24T08:30:18.326Z,1000.4
2022-11-24T08:31:00.121Z,1000.41
2022-11-24T08:31:42.166Z,1000.45
2022-11-24T08:32:23.404Z,1000.34
2022-11-24T08:33:04.614Z,1000.42
2022-11-24T08:33:45.768Z,1000.48
2022-11-24T08:34:28.626Z,1000.46
2022-11-24T08:35:14.155Z,1000.49
2022-11-24T08:35:52.592Z,1000.44
2022-11-24T08:36:33.661Z,1000.48
2022-11-24T08:37:15.427Z,1000.51
2022-11-24T08:38:03.278Z,1000.55
2022-11-24T08:38:39.486Z,1000.59
2022-11-24T08:39:20.909Z,1000.54
2022-11-24T08:40:03.381Z,1000.59
2022-11-24T08:40:43.677Z,1000.52
2022-11-24T08:41:28.840Z,1000.55
2022-11-24T08:42:10.668Z,1000.55
2022-11-24T08:42:52.276Z,1000.57
2022-11-24T08:44:37.900Z,1000.56
2022-11-24T08:45:24.755Z,1000.6
2022-11-24T08:46:03.315Z,1000.61
2022-11-24T08:46:43.988Z,1000.5
2022-11-24T08:47:24.574Z,1000.62
2022-11-24T08:48:05.894Z,1000.61
2022-11-24T08:48:46.802Z,1000.61
2022-11-24T08:49:27.357Z,1000.64
2022-11-24T08:50:08.006Z,1000.62
2022-11-24T08:50:48.430Z,1000.64
2022-11-24T08:51:28.979Z,1000.64
2022-11-24T08:52:09.541Z,1000.74
2022-11-24T08:52:50.204Z,1000.76
2022-11-24T08:53:32.714Z,1000.74
2022-11-24T08:54:13.333Z,1000.73
2022-11-24T08:54:54.237Z,1000.73
2022-11-24T08:55:34.635Z,1000.82
2022-11-24T08:56:15.297Z,1000.81
2022-11-24T08:56:55.791Z,1000.75
2022-11-24T08:57:36.388Z,1000.78
2022-11-24T08:58:17.605Z,1000.8
2022-11-24T08:58:59.017Z,1000.87
2022-11-24T08:59:39.622Z,1000.87
2022-11-24T09:00:20.573Z,1000.84
2022-11-24T09:01:01.116Z,1000.9
2022-11-24T09:01:41.724Z,1000.89
2022-11-24T09:02:22.702Z,1000.94
2022-11-24T09:03:03.065Z,1000.99
2022-11-24T09:03:49.885Z,1000.94
2022-11-24T09:04:24.247Z,1001
2022-11-24T09:05:07.199Z,1000.97
2022-11-24T09:05:53.087Z,1000.99
2022-11-24T09:06:26.081Z,1000.95
2022-11-24T09:07:06.660Z,1001
2022-11-24T09:09:05.620Z,1001.03
2022-11-24T09:09:50.870Z,1001.02
2022-11-24T09:10:31.807Z,1000.98
2022-11-24T09:11:14.130Z,1001.02
2022-11-24T09:18:37.433Z,1001.19
2022-11-24T09:19:20.738Z,1001.28
2022-11-24T09:21:13.565Z,1001.28
2022-11-24T09:21:54.501Z,1001.27
2022-11-24T09:22:35.026Z,1001.29
2022-11-24T09:23:15.658Z,1001.3
2022-11-24T09:23:57.250Z,1001.32
2022-11-24T09:24:39.709Z,1001.24
2022-11-24T09:25:20.258Z,1001.3
2022-11-24T09:26:00.740Z,1001.28
2022-11-24T09:26:44.695Z,1001.31
2022-11-24T09:27:23.414Z,1001.33
2022-11-24T09:31:41.310Z,1001.42
2022-11-24T09:33:43.624Z,1001.43
2022-11-24T09:34:26.289Z,1001.48
2022-11-24T09:35:07.589Z,1001.49
2022-11-24T09:35:49.010Z,1001.52
2022-11-24T09:36:37.827Z,1001.48
2022-11-24T09:37:20.609Z,1001.52
2022-11-24T09:41:10.141Z,1001.63
2022-11-24T09:41:50.971Z,1001.61
2022-11-24T09:42:31.947Z,1001.65
2022-11-24T09:43:12.780Z,1001.58
2022-11-24T09:43:53.255Z,1001.61
2022-11-24T09:44:33.834Z,1001.59
2022-11-24T09:45:14.785Z,1001.65
2022-11-24T09:46:05.320Z,1001.65
2022-11-24T09:48:55.381Z,1001.67
2022-11-24T09:49:36.701Z,1001.75
2022-11-24T09:50:17.620Z,1001.74
2022-11-24T09:50:58.689Z,1001.74
2022-11-24T09:51:39.875Z,1001.76
2022-11-24T09:52:21.412Z,1001.78
2022-11-24T09:53:02.302Z,1001.7
2022-11-24T09:53:43.375Z,1001.72
2022-11-24T09:54:27.837Z,1001.71
2022-11-24T09:55:09.163Z,1001.59
2022-11-24T09:58:38.905Z,1001.77
2022-11-24T09:59:19.931Z,1001.64
2022-11-24T10:00:00.850Z,1001.71
2022-11-24T10:00:44.475Z,1001.78
2022-11-24T10:01:25.175Z,1001.75
2022-11-24T10:02:06.431Z,1001.69
2022-11-24T10:02:47.074Z,1001.74
2022-11-24T10:03:29.345Z,1001.74
2022-11-24T10:04:09.476Z,1001.79
2022-11-24T10:04:49.984Z,1001.81
2022-11-24T10:05:30.536Z,1001.76
2022-11-24T10:06:18.644Z,1001.76
2022-11-24T10:06:58.815Z,1001.78
2022-11-24T10:07:39.085Z,1001.77
2022-11-24T10:09:39.987Z,1001.82
2022-11-24T10:10:24.717Z,1001.83
2022-11-24T10:11:02.094Z,1001.8
2022-11-24T10:11:42.751Z,1001.79
2022-11-24T10:12:23.213Z,1001.8
2022-11-24T10:13:44.441Z,1001.84
2022-11-24T10:14:25.265Z,1001.81
2022-11-24T10:15:05.863Z,1001.82
2022-11-24T10:15:46.628Z,1001.84
2022-11-24T10:16:27.292Z,1001.86
2022-11-24T10:17:07.894Z,1001.92
2022-11-24T10:17:48.532Z,1001.87
2022-11-24T10:18:31.231Z,1001.8
2022-11-24T10:19:11.901Z,1001.83
2022-11-24T10:19:52.946Z,1001.86
2022-11-24T10:20:33.302Z,1001.91
2022-11-24T10:21:13.906Z,1001.87
2022-11-24T10:21:54.395Z,1001.94
2022-11-24T10:22:34.947Z,1001.85
2022-11-24T10:23:16.299Z,1001.87
2022-11-24T10:23:56.762Z,1001.82
2022-11-24T10:24:37.427Z,1001.88
2022-11-24T10:25:18.077Z,1001.89
2022-11-24T10:25:58.845Z,1001.92
2022-11-24T10:26:39.477Z,1001.99
2022-11-24T10:27:20.108Z,1001.98
2022-11-24T10:28:00.688Z,1002.02
2022-11-24T10:28:41.316Z,1002.03
2022-11-24T10:29:21.898Z,1002.07
2022-11-24T10:30:02.401Z,1002.05
2022-11-24T10:30:42.922Z,1002.01
2022-11-24T10:31:23.618Z,1002.04
2022-11-24T10:32:04.105Z,1002.08
2022-11-24T10:32:44.691Z,1002.06
2022-11-24T10:33:30.303Z,1002.03
2022-11-24T10:34:05.840Z,1002.07
2022-11-24T10:34:46.659Z,1002.02